Terminal Aerodrome Forecast
Issued by NWS

Current Version | Previous Version | Text Only | Print | Product List | Glossary On
Versions: 1 2 3 4 5 6 7 8 9 10 11 12
218
FTUS45 KABQ 192322
TAFAEG
TAF
KAEG 192322Z 2000/2024 18005KT P6SM SCT250
     FM200600 31005KT P6SM FEW250
     FM201800 29008KT P6SM SCT250=

USA.gov is the U.S. government's official web portal to all federal, state and local government web resources and services.